Time;durP1;ratioP1;P1;durP2;ratioP2;P2;SDS_P1;SDS_P2;PMS_P1;PMS_P2;Temp;Humidity;BMP_temperature;BMP_pressure;BME280_temperature;BME280_humidity;BME280_pressure;Samples;Min_cycle;Max_cycle;Signal;HPM_P1;HPM_P2
2023/07/24 00:01:38;;;;;;;4.15;1.63;;;;;;;-144.48;100.00;62369.91;5035494;28;20083;-66
2023/07/24 00:04:04;;;;;;;5.75;1.60;;;;;;;-144.48;100.00;62369.91;5028375;28;20056;-68
2023/07/24 00:06:29;;;;;;;4.78;2.10;;;;;;;-144.48;100.00;62369.91;5029013;28;20026;-65
2023/07/24 00:08:54;;;;;;;3.05;1.30;;;;;;;-144.48;100.00;62369.91;5028161;28;20382;-67
2023/07/24 00:11:20;;;;;;;4.78;1.90;;;;;;;-144.48;100.00;62369.91;5025200;28;20375;-67
2023/07/24 00:13:45;;;;;;;5.53;2.00;;;;;;;-144.48;100.00;62369.91;5028240;28;20048;-66
2023/07/24 00:16:10;;;;;;;4.45;1.80;;;;;;;-144.48;100.00;62369.91;5029267;28;20030;-66
2023/07/24 00:18:36;;;;;;;5.70;1.85;;;;;;;-144.48;100.00;62369.91;5029714;28;20136;-68
2023/07/24 00:21:01;;;;;;;13.30;2.35;;;;;;;-144.48;100.00;62369.91;5028696;28;20483;-68
2023/07/24 00:23:27;;;;;;;3.38;1.73;;;;;;;-144.48;100.00;62369.91;5028443;28;20483;-67
2023/07/24 00:25:53;;;;;;;5.10;1.90;;;;;;;-144.48;100.00;62369.91;5028972;28;20029;-66
2023/07/24 00:28:19;;;;;;;8.10;1.90;;;;;;;-144.48;100.00;62369.91;5029095;28;20407;-67
2023/07/24 00:30:44;;;;;;;4.30;1.85;;;;;;;-144.48;100.00;62369.91;5029316;28;20032;-67
2023/07/24 00:33:09;;;;;;;4.70;2.10;;;;;;;-144.48;100.00;62369.91;5028704;28;20022;-67
2023/07/24 00:35:35;;;;;;;4.15;1.85;;;;;;;-144.48;100.00;62369.91;5025906;28;20028;-68
2023/07/24 00:38:00;;;;;;;8.10;2.08;;;;;;;-144.48;100.00;62369.91;5028343;28;20101;-67
2023/07/24 00:40:25;;;;;;;3.92;1.88;;;;;;;-144.48;100.00;62369.91;5029399;28;20487;-67
2023/07/24 00:42:51;;;;;;;5.65;1.88;;;;;;;-144.48;100.00;62369.91;5029387;28;20025;-68
2023/07/24 00:45:16;;;;;;;4.10;1.75;;;;;;;-144.48;100.00;62369.91;5028132;28;20541;-67
2023/07/24 00:47:43;;;;;;;6.38;1.60;;;;;;;-144.48;100.00;62369.91;5029284;28;20021;-65
2023/07/24 00:50:11;;;;;;;5.13;1.73;;;;;;;-144.48;100.00;62369.91;5015794;28;20021;-63
2023/07/24 00:52:37;;;;;;;6.05;1.90;;;;;;;-144.48;100.00;62369.91;5010793;28;20454;-67
2023/07/24 00:55:03;;;;;;;3.63;1.58;;;;;;;-144.48;100.00;62369.91;5028483;28;20109;-69
2023/07/24 00:57:28;;;;;;;3.75;1.67;;;;;;;-144.48;100.00;62369.91;5031841;28;20104;-68
2023/07/24 00:59:54;;;;;;;5.38;1.70;;;;;;;-144.48;100.00;62369.91;5019327;28;20053;-67
2023/07/24 01:02:20;;;;;;;12.43;2.15;;;;;;;-144.48;100.00;62369.91;5032518;28;20079;-67
2023/07/24 01:04:45;;;;;;;9.60;1.80;;;;;;;-144.48;100.00;62369.91;5031816;28;20025;-67
2023/07/24 01:07:11;;;;;;;2.85;1.50;;;;;;;-144.48;100.00;62369.91;5032090;28;20029;-67
2023/07/24 01:09:37;;;;;;;3.90;1.70;;;;;;;-144.48;100.00;62369.91;5027737;28;20025;-63
2023/07/24 01:12:30;;;;;;;2.88;1.15;;;;;;;-144.48;100.00;62369.91;5032769;28;20525;-67
2023/07/24 01:15:16;;;;;;;3.45;1.60;;;;;;;-144.48;100.00;62369.91;5014066;28;20112;-67
2023/07/24 01:17:53;;;;;;;2.70;1.40;;;;;;;-144.48;100.00;62369.91;5032388;28;20021;-67
2023/07/24 01:20:19;;;;;;;4.65;1.75;;;;;;;-144.48;100.00;62369.91;5032092;28;20037;-67
2023/07/24 01:23:03;;;;;;;2.97;1.38;;;;;;;-144.48;100.00;62369.91;5031969;28;20031;-67
2023/07/24 01:25:36;;;;;;;3.42;1.40;;;;;;;-144.48;100.00;62369.91;5031699;28;20112;-66
2023/07/24 01:28:09;;;;;;;6.13;1.50;;;;;;;-144.48;100.00;62369.91;5032312;28;20025;-67
2023/07/24 01:30:34;;;;;;;6.47;1.63;;;;;;;-144.48;100.00;62369.91;5032331;28;20104;-67
2023/07/24 01:33:02;;;;;;;4.65;1.45;;;;;;;-144.48;100.00;62369.91;5032305;28;20171;-66
2023/07/24 01:35:30;;;;;;;3.55;1.70;;;;;;;-144.48;100.00;62369.91;5028698;28;20017;-66
2023/07/24 01:37:56;;;;;;;2.97;1.33;;;;;;;-144.48;100.00;62369.91;5031826;28;20025;-67
2023/07/24 01:40:22;;;;;;;4.05;1.88;;;;;;;-144.48;100.00;62369.91;5032176;28;20033;-67
2023/07/24 01:42:49;;;;;;;4.25;1.90;;;;;;;-144.48;100.00;62369.91;5032271;28;20027;-68
2023/07/24 01:45:15;;;;;;;3.75;1.70;;;;;;;-144.48;100.00;62369.91;5031139;28;20036;-67
2023/07/24 01:47:40;;;;;;;3.88;1.77;;;;;;;-144.48;100.00;62369.91;5032045;28;20505;-67
2023/07/24 01:50:06;;;;;;;4.75;1.75;;;;;;;-144.48;100.00;62369.91;5031628;28;20030;-67
2023/07/24 01:52:32;;;;;;;4.00;1.75;;;;;;;-144.48;100.00;62369.91;5031613;28;20479;-66
2023/07/24 01:54:57;;;;;;;4.53;1.90;;;;;;;-144.48;100.00;62369.91;5031247;28;20037;-66
2023/07/24 01:57:22;;;;;;;4.75;2.40;;;;;;;-144.48;100.00;62369.91;5032157;28;20045;-68
2023/07/24 01:59:48;;;;;;;8.38;2.65;;;;;;;-144.48;100.00;62369.91;5031724;28;20396;-69
2023/07/24 02:02:14;;;;;;;5.25;2.42;;;;;;;-144.48;100.00;62369.91;5032132;28;20057;-65
2023/07/24 02:04:39;;;;;;;5.80;2.38;;;;;;;-144.48;100.00;62369.91;5030564;28;20112;-65
2023/07/24 02:07:05;;;;;;;5.13;2.45;;;;;;;-144.48;100.00;62369.91;5030014;28;20237;-66
2023/07/24 02:09:30;;;;;;;7.75;2.70;;;;;;;-144.48;100.00;62369.91;5007438;28;20097;-65
2023/07/24 02:11:55;;;;;;;6.20;2.30;;;;;;;-144.48;100.00;62369.91;5031807;28;20025;-67
2023/07/24 02:14:21;;;;;;;7.25;2.53;;;;;;;-144.48;100.00;62369.91;5030175;28;20029;-68
2023/07/24 02:16:46;;;;;;;13.25;2.95;;;;;;;-144.48;100.00;62369.91;5031600;28;20029;-67
2023/07/24 02:19:11;;;;;;;5.80;2.42;;;;;;;-144.48;100.00;62369.91;5031448;28;20025;-67
2023/07/24 02:21:37;;;;;;;5.65;2.25;;;;;;;-144.48;100.00;62369.91;5031628;28;20399;-67
2023/07/24 02:24:03;;;;;;;5.53;2.35;;;;;;;-144.48;100.00;62369.91;5030889;28;20025;-64
2023/07/24 02:26:28;;;;;;;9.85;2.67;;;;;;;-144.48;100.00;62369.91;5031552;28;20403;-64
2023/07/24 02:28:54;;;;;;;10.32;3.00;;;;;;;-144.48;100.00;62369.91;5030934;28;20034;-65
2023/07/24 02:31:19;;;;;;;5.32;2.60;;;;;;;-144.48;100.00;62369.91;5031403;28;20017;-65
2023/07/24 02:33:44;;;;;;;9.98;2.72;;;;;;;-144.48;100.00;62369.91;5027516;28;20109;-67
2023/07/24 02:36:10;;;;;;;14.73;2.65;;;;;;;-144.48;100.00;62369.91;5030903;28;20105;-67
2023/07/24 02:38:35;;;;;;;6.72;2.60;;;;;;;-144.48;100.00;62369.91;5030793;28;20451;-66
2023/07/24 02:41:00;;;;;;;8.02;2.45;;;;;;;-144.48;100.00;62369.91;5031199;28;20111;-67
2023/07/24 02:43:26;;;;;;;9.65;2.90;;;;;;;-144.48;100.00;62369.91;5030340;28;20108;-68
2023/07/24 02:45:51;;;;;;;12.20;2.67;;;;;;;-144.48;100.00;62369.91;5030704;28;20021;-68
2023/07/24 02:48:17;;;;;;;10.20;3.00;;;;;;;-144.48;100.00;62369.91;5030666;28;20173;-67
2023/07/24 02:50:42;;;;;;;8.88;3.10;;;;;;;-144.48;100.00;62369.91;5031131;28;20033;-65
2023/07/24 02:53:07;;;;;;;7.22;2.63;;;;;;;-144.48;100.00;62369.91;5030186;28;20931;-64
2023/07/24 02:55:33;;;;;;;7.82;2.80;;;;;;;-144.48;100.00;62369.91;5030830;28;20036;-68
2023/07/24 02:57:58;;;;;;;5.13;2.50;;;;;;;-144.48;100.00;62369.91;5031162;28;20036;-67
2023/07/24 03:00:23;;;;;;;5.18;2.63;;;;;;;-144.48;100.00;62369.91;5012704;28;20022;-67
2023/07/24 03:02:49;;;;;;;12.38;3.05;;;;;;;-144.48;100.00;62369.91;5030537;28;20024;-67
2023/07/24 03:05:14;;;;;;;8.32;2.67;;;;;;;-144.48;100.00;62369.91;5029537;28;20454;-67
2023/07/24 03:07:40;;;;;;;15.02;2.67;;;;;;;-144.48;100.00;62369.91;5029306;28;20025;-67
2023/07/24 03:10:05;;;;;;;10.98;2.95;;;;;;;-144.48;100.00;62369.91;5029997;28;20022;-67
2023/07/24 03:12:31;;;;;;;7.93;2.65;;;;;;;-144.48;100.00;62369.91;5030635;28;20029;-63
2023/07/24 03:14:56;;;;;;;9.32;2.85;;;;;;;-144.48;100.00;62369.91;5029176;28;20022;-67
2023/07/24 03:17:22;;;;;;;11.07;2.90;;;;;;;-144.48;100.00;62369.91;5030518;28;20184;-68
2023/07/24 03:22:19;;;;;;;11.57;3.05;;;;;;;-144.48;100.00;62369.91;5048581;22;20065;-66
2023/07/24 03:24:45;;;;;;;7.00;3.10;;;;;;;-144.48;100.00;62369.91;5028600;28;20021;-65
2023/07/24 03:27:10;;;;;;;8.52;2.90;;;;;;;-144.48;100.00;62369.91;5029353;28;20025;-63
2023/07/24 03:29:37;;;;;;;7.40;2.78;;;;;;;-144.48;100.00;62369.91;5028706;28;20375;-66
2023/07/24 03:32:02;;;;;;;5.40;2.75;;;;;;;-144.48;100.00;62369.91;5010939;28;20265;-67
2023/07/24 03:34:28;;;;;;;8.68;2.75;;;;;;;-144.48;100.00;62369.91;5025061;28;20391;-64
2023/07/24 03:36:53;;;;;;;7.35;2.80;;;;;;;-144.48;100.00;62369.91;5028377;28;20036;-66
2023/07/24 03:39:18;;;;;;;9.20;3.03;;;;;;;-144.48;100.00;62369.91;5028997;28;20025;-66
2023/07/24 03:41:44;;;;;;;6.55;2.65;;;;;;;-144.48;100.00;62369.91;5028747;28;20025;-66
2023/07/24 03:44:09;;;;;;;10.07;3.00;;;;;;;-144.48;100.00;62369.91;5027688;28;20033;-62
2023/07/24 03:46:35;;;;;;;8.02;3.00;;;;;;;-144.48;100.00;62369.91;5028814;28;20526;-67
2023/07/24 03:49:00;;;;;;;8.27;2.25;;;;;;;-144.48;100.00;62369.91;5028724;28;20032;-67
2023/07/24 03:51:26;;;;;;;5.47;2.20;;;;;;;-144.48;100.00;62369.91;5028386;28;20379;-65
2023/07/24 03:53:51;;;;;;;6.00;2.60;;;;;;;-144.48;100.00;62369.91;5027940;28;20156;-67
2023/07/24 03:56:17;;;;;;;5.80;3.08;;;;;;;-144.48;100.00;62369.91;5028632;28;20116;-62
2023/07/24 03:58:42;;;;;;;7.50;2.50;;;;;;;-144.48;100.00;62369.91;5028186;28;20021;-65
2023/07/24 04:01:08;;;;;;;10.57;3.47;;;;;;;-144.48;100.00;62369.91;5028126;28;20108;-68
2023/07/24 04:03:34;;;;;;;11.70;2.65;;;;;;;-144.48;100.00;62369.91;5028005;28;20076;-66
2023/07/24 04:06:00;;;;;;;5.70;2.40;;;;;;;-144.48;100.00;62369.91;5027618;28;20452;-66
2023/07/24 04:08:25;;;;;;;7.88;2.40;;;;;;;-144.48;100.00;62369.91;5027540;28;20118;-66
2023/07/24 04:10:50;;;;;;;8.02;3.03;;;;;;;-144.48;100.00;62369.91;5025248;28;20013;-66
2023/07/24 04:13:16;;;;;;;6.88;2.65;;;;;;;-144.48;100.00;62369.91;5028181;28;20029;-64
2023/07/24 04:15:41;;;;;;;4.93;2.58;;;;;;;-144.48;100.00;62369.91;5028021;28;20021;-67
2023/07/24 04:18:06;;;;;;;10.68;2.65;;;;;;;-144.48;100.00;62369.91;5010407;28;20029;-65
2023/07/24 04:20:32;;;;;;;6.20;3.00;;;;;;;-144.48;100.00;62369.91;5027466;28;20111;-66
2023/07/24 04:22:57;;;;;;;5.53;2.67;;;;;;;-144.48;100.00;62369.91;5027650;28;20025;-66
2023/07/24 04:25:22;;;;;;;8.73;2.85;;;;;;;-144.48;100.00;62369.91;5027180;28;20025;-67
2023/07/24 04:27:48;;;;;;;5.82;2.83;;;;;;;-144.48;100.00;62369.91;5010724;28;20477;-63
2023/07/24 04:30:13;;;;;;;11.05;3.17;;;;;;;-144.48;100.00;62369.91;5027743;28;20026;-68
2023/07/24 04:32:39;;;;;;;7.22;2.58;;;;;;;-144.48;100.00;62369.91;5027736;28;20480;-65
2023/07/24 04:35:05;;;;;;;6.75;2.85;;;;;;;-144.48;100.00;62369.91;5009139;28;20497;-64
2023/07/24 04:37:30;;;;;;;5.95;2.78;;;;;;;-144.48;100.00;62369.91;5010244;28;20504;-66
2023/07/24 04:39:56;;;;;;;8.27;3.05;;;;;;;-144.48;100.00;62369.91;5028058;28;20097;-67
2023/07/24 04:42:21;;;;;;;7.40;3.17;;;;;;;-144.48;100.00;62369.91;5028660;28;20060;-66
2023/07/24 04:44:46;;;;;;;5.82;2.78;;;;;;;-144.48;100.00;62369.91;5027066;28;20079;-67
2023/07/24 04:47:12;;;;;;;6.10;2.05;;;;;;;-144.48;100.00;62369.91;5028407;28;20136;-67
2023/07/24 04:49:37;;;;;;;6.70;2.90;;;;;;;-144.48;100.00;62369.91;5028125;28;20029;-62
2023/07/24 04:52:03;;;;;;;9.07;3.00;;;;;;;-144.48;100.00;62369.91;5028367;28;20344;-67
2023/07/24 04:54:28;;;;;;;5.60;2.33;;;;;;;-144.48;100.00;62369.91;5028082;28;20451;-66
2023/07/24 04:56:53;;;;;;;5.72;2.53;;;;;;;-144.48;100.00;62369.91;5029008;28;20037;-64
2023/07/24 04:59:19;;;;;;;6.15;2.78;;;;;;;-144.48;100.00;62369.91;5028861;28;20029;-67
2023/07/24 05:01:44;;;;;;;8.80;3.08;;;;;;;-144.48;100.00;62369.91;5028912;28;20510;-63
2023/07/24 05:04:10;;;;;;;10.70;2.70;;;;;;;-144.48;100.00;62369.91;5027378;28;20028;-66
2023/07/24 05:06:37;;;;;;;6.88;2.72;;;;;;;-144.48;100.00;62369.91;5028153;28;20021;-67
2023/07/24 05:09:02;;;;;;;6.88;3.13;;;;;;;-144.48;100.00;62369.91;5027506;28;20184;-67
2023/07/24 05:11:27;;;;;;;7.18;3.08;;;;;;;-144.48;100.00;62369.91;5027534;28;20108;-68
2023/07/24 05:13:53;;;;;;;7.47;2.90;;;;;;;-144.48;100.00;62369.91;5008160;28;20116;-67
2023/07/24 05:16:18;;;;;;;7.95;3.08;;;;;;;-144.48;100.00;62369.91;5028240;28;20128;-67
2023/07/24 05:18:44;;;;;;;8.48;3.45;;;;;;;-144.48;100.00;62369.91;5027720;28;20076;-67
2023/07/24 05:21:09;;;;;;;6.38;3.10;;;;;;;-144.48;100.00;62369.91;5027021;28;20128;-67
2023/07/24 05:23:34;;;;;;;7.95;3.28;;;;;;;-144.48;100.00;62369.91;5008626;28;20033;-65
2023/07/24 05:26:01;;;;;;;5.80;2.75;;;;;;;-144.48;100.00;62369.91;5027499;28;20418;-68
2023/07/24 05:28:27;;;;;;;19.10;3.75;;;;;;;-144.48;100.00;62369.91;5027091;28;20040;-64
2023/07/24 05:30:53;;;;;;;6.47;2.97;;;;;;;-144.48;100.00;62369.91;5009713;28;20145;-66
2023/07/24 05:33:18;;;;;;;10.88;3.75;;;;;;;-144.48;100.00;62369.91;5025437;28;20109;-66
2023/07/24 05:35:43;;;;;;;12.57;3.80;;;;;;;-144.48;100.00;62369.91;5025580;28;20323;-63
2023/07/24 05:38:09;;;;;;;8.00;3.38;;;;;;;-144.48;100.00;62369.91;5027113;28;20021;-67
2023/07/24 05:40:35;;;;;;;16.33;3.50;;;;;;;-144.48;100.00;62369.91;5028101;28;20032;-66
2023/07/24 05:43:00;;;;;;;8.98;3.03;;;;;;;-144.48;100.00;62369.91;5028808;28;20586;-66
2023/07/24 05:45:27;;;;;;;7.75;3.08;;;;;;;-144.48;100.00;62369.91;5030602;28;20505;-66
2023/07/24 05:47:52;;;;;;;7.03;3.65;;;;;;;-144.48;100.00;62369.91;5032688;28;20029;-66
2023/07/24 05:50:18;;;;;;;8.40;2.88;;;;;;;-144.48;100.00;62369.91;5031099;28;20108;-67
2023/07/24 05:52:43;;;;;;;12.38;3.17;;;;;;;-144.48;100.00;62369.91;5030054;28;20438;-64
2023/07/24 05:55:09;;;;;;;10.75;3.72;;;;;;;-144.48;100.00;62369.91;5030370;28;20454;-66
2023/07/24 05:57:34;;;;;;;11.25;3.17;;;;;;;-144.48;100.00;62369.91;5012465;28;20529;-69
2023/07/24 06:00:00;;;;;;;7.38;3.33;;;;;;;-144.48;100.00;62369.91;5030158;28;20029;-67
2023/07/24 06:02:25;;;;;;;7.28;3.30;;;;;;;-144.48;100.00;62369.91;5030451;28;20255;-65
2023/07/24 06:04:50;;;;;;;6.45;3.20;;;;;;;-144.48;100.00;62369.91;5029578;28;20506;-66
2023/07/24 06:07:15;;;;;;;8.68;3.33;;;;;;;-144.48;100.00;62369.91;5027721;28;20543;-64
2023/07/24 06:09:41;;;;;;;8.60;3.95;;;;;;;-144.48;100.00;62369.91;5025908;28;20501;-66
2023/07/24 06:12:07;;;;;;;6.25;3.35;;;;;;;-144.48;100.00;62369.91;5030354;28;20483;-66
2023/07/24 06:14:32;;;;;;;7.38;3.65;;;;;;;-144.48;100.00;62369.91;5029470;28;20367;-63
2023/07/24 06:16:57;;;;;;;8.32;3.33;;;;;;;-144.48;100.00;62369.91;5030530;28;20351;-67
2023/07/24 06:19:23;;;;;;;7.93;3.15;;;;;;;-144.48;100.00;62369.91;5030397;28;20463;-66
2023/07/24 06:21:48;;;;;;;7.22;3.70;;;;;;;-144.48;100.00;62369.91;5030105;28;20037;-65
2023/07/24 06:24:13;;;;;;;6.22;2.85;;;;;;;-144.48;100.00;62369.91;5030497;28;20308;-67
2023/07/24 06:26:39;;;;;;;5.53;2.83;;;;;;;-144.48;100.00;62369.91;5030619;28;20026;-68
2023/07/24 06:29:05;;;;;;;6.93;3.17;;;;;;;-144.48;100.00;62369.91;5030060;28;20368;-65
2023/07/24 06:31:30;;;;;;;8.30;3.13;;;;;;;-144.48;100.00;62369.91;5029914;28;20026;-67
2023/07/24 06:33:56;;;;;;;6.45;3.15;;;;;;;-144.48;100.00;62369.91;5026606;28;20078;-68
2023/07/24 06:36:21;;;;;;;7.22;3.30;;;;;;;-144.48;100.00;62369.91;5029880;28;20025;-64
2023/07/24 06:38:47;;;;;;;7.43;3.22;;;;;;;-144.48;100.00;62369.91;5029544;28;20032;-66
2023/07/24 06:41:15;;;;;;;6.75;3.20;;;;;;;-144.48;100.00;62369.91;5029983;28;20425;-67
2023/07/24 06:43:43;;;;;;;9.35;4.03;;;;;;;-144.48;100.00;62369.91;5015966;28;20022;-66
2023/07/24 06:46:08;;;;;;;9.75;3.80;;;;;;;-144.48;100.00;62369.91;5029698;28;20029;-65
2023/07/24 06:48:33;;;;;;;6.45;3.17;;;;;;;-144.48;100.00;62369.91;5029926;28;20402;-66
2023/07/24 06:50:59;;;;;;;8.80;3.22;;;;;;;-144.48;100.00;62369.91;5029473;28;20026;-66
2023/07/24 06:53:24;;;;;;;6.07;3.10;;;;;;;-144.48;100.00;62369.91;5028596;28;20117;-63
2023/07/24 06:55:49;;;;;;;7.30;3.05;;;;;;;-144.48;100.00;62369.91;5028698;28;20045;-66
2023/07/24 06:58:15;;;;;;;6.32;2.95;;;;;;;-144.48;100.00;62369.91;5029490;28;20449;-66
2023/07/24 07:00:40;;;;;;;7.28;3.17;;;;;;;-144.48;100.00;62369.91;5031315;28;20084;-65
2023/07/24 07:03:06;;;;;;;8.32;3.42;;;;;;;-144.48;100.00;62369.91;5029849;28;20276;-67
2023/07/24 07:05:32;;;;;;;11.63;3.63;;;;;;;-144.48;100.00;62369.91;5028468;28;20049;-64
2023/07/24 07:07:57;;;;;;;9.18;3.67;;;;;;;-144.48;100.00;62369.91;5026685;28;20455;-66
2023/07/24 07:10:24;;;;;;;7.00;3.30;;;;;;;-144.48;100.00;62369.91;5007488;28;20133;-62
2023/07/24 07:12:49;;;;;;;7.78;3.38;;;;;;;-144.48;100.00;62369.91;5028936;28;20075;-67
2023/07/24 07:15:15;;;;;;;7.60;2.92;;;;;;;-144.48;100.00;62369.91;5028429;28;20478;-67
2023/07/24 07:17:41;;;;;;;11.32;3.40;;;;;;;-144.48;100.00;62369.91;5029236;28;20083;-63
2023/07/24 07:20:07;;;;;;;8.60;3.78;;;;;;;-144.48;100.00;62369.91;5011009;28;20044;-67
2023/07/24 07:22:32;;;;;;;7.90;3.33;;;;;;;-144.48;100.00;62369.91;5028759;28;20025;-64
2023/07/24 07:24:57;;;;;;;7.32;2.95;;;;;;;-144.48;100.00;62369.91;5028619;28;20037;-68
2023/07/24 07:27:23;;;;;;;8.10;3.42;;;;;;;-144.48;100.00;62369.91;5029199;28;20051;-67
2023/07/24 07:29:48;;;;;;;12.13;3.75;;;;;;;-144.48;100.00;62369.91;5028548;28;20037;-67
2023/07/24 07:32:13;;;;;;;10.43;3.40;;;;;;;-144.48;100.00;62369.91;5028583;28;20113;-66
2023/07/24 07:34:39;;;;;;;9.68;3.72;;;;;;;-144.48;100.00;62369.91;5025395;28;20041;-67
2023/07/24 07:37:05;;;;;;;7.22;3.22;;;;;;;-144.48;100.00;62369.91;5027906;28;20029;-68
2023/07/24 07:39:31;;;;;;;8.05;4.00;;;;;;;-144.48;100.00;62369.91;5028890;28;20025;-66
2023/07/24 07:41:56;;;;;;;6.78;3.10;;;;;;;-144.48;100.00;62369.91;5028715;28;20025;-67
2023/07/24 07:44:22;;;;;;;9.35;4.03;;;;;;;-144.48;100.00;62369.91;5027317;28;20043;-66
2023/07/24 07:46:47;;;;;;;8.40;3.80;;;;;;;-144.48;100.00;62369.91;5010402;28;20045;-67
2023/07/24 07:49:13;;;;;;;7.90;3.47;;;;;;;-144.48;100.00;62369.91;5028628;28;20110;-65
2023/07/24 07:51:38;;;;;;;13.20;3.88;;;;;;;-144.48;100.00;62369.91;5028485;28;20025;-67
2023/07/24 07:54:04;;;;;;;8.45;3.88;;;;;;;-144.48;100.00;62369.91;5028119;28;20403;-67
2023/07/24 07:56:29;;;;;;;9.52;3.53;;;;;;;-144.48;100.00;62369.91;5010667;28;20258;-65
2023/07/24 07:58:55;;;;;;;9.52;3.60;;;;;;;-144.48;100.00;62369.91;5028077;28;20100;-67
2023/07/24 08:01:20;;;;;;;10.38;4.07;;;;;;;-144.48;100.00;62369.91;5028407;28;20021;-63
2023/07/24 08:03:45;;;;;;;8.73;3.65;;;;;;;-144.48;100.00;62369.91;5028135;28;20430;-67
2023/07/24 08:06:12;;;;;;;8.25;3.63;;;;;;;-144.48;100.00;62369.91;5028278;28;20563;-67
2023/07/24 08:08:37;;;;;;;8.43;3.58;;;;;;;-144.48;100.00;62369.91;5022567;28;20021;-67
2023/07/24 08:11:06;;;;;;;8.57;4.30;;;;;;;-144.48;100.00;62369.91;5028931;28;20022;-67
2023/07/24 08:13:32;;;;;;;8.77;3.75;;;;;;;-144.48;100.00;62369.91;5027783;28;20040;-68
2023/07/24 08:15:59;;;;;;;10.02;3.28;;;;;;;-144.48;100.00;62369.91;5028434;28;20108;-68
2023/07/24 08:18:25;;;;;;;10.68;3.72;;;;;;;-144.48;100.00;62369.91;5028648;28;20108;-67
2023/07/24 08:20:50;;;;;;;16.83;6.15;;;;;;;-144.48;100.00;62369.91;5027571;28;20061;-64
2023/07/24 08:23:16;;;;;;;9.18;3.33;;;;;;;-144.48;100.00;62369.91;5027363;28;20439;-65
2023/07/24 08:25:51;;;;;;;11.40;3.78;;;;;;;-144.48;100.00;62369.91;5027358;28;20029;-67
2023/07/24 08:28:16;;;;;;;7.25;3.13;;;;;;;-144.48;100.00;62369.91;5028251;28;20109;-66
2023/07/24 08:30:41;;;;;;;9.63;4.50;;;;;;;-144.48;100.00;62369.91;5028126;28;20121;-64
2023/07/24 08:33:07;;;;;;;9.02;3.67;;;;;;;-144.48;100.00;62369.91;5027661;28;20032;-67
2023/07/24 08:35:32;;;;;;;7.13;3.55;;;;;;;-144.48;100.00;62369.91;5024534;28;20117;-66
2023/07/24 08:37:57;;;;;;;8.80;3.55;;;;;;;-144.48;100.00;62369.91;5027797;28;20133;-67
2023/07/24 08:40:23;;;;;;;7.00;3.55;;;;;;;-144.48;100.00;62369.91;5028195;28;20383;-65
2023/07/24 08:42:52;;;;;;;8.18;3.63;;;;;;;-144.48;100.00;62369.91;5027871;28;20049;-66
2023/07/24 08:45:18;;;;;;;8.95;3.97;;;;;;;-144.48;100.00;62369.91;5026650;28;20092;-67
2023/07/24 08:47:44;;;;;;;6.68;3.30;;;;;;;-144.48;100.00;62369.91;5027339;28;20037;-65
2023/07/24 08:50:11;;;;;;;6.72;3.50;;;;;;;-144.48;100.00;62369.91;5027882;28;20026;-68
2023/07/24 08:52:38;;;;;;;7.72;3.50;;;;;;;-144.48;100.00;62369.91;5009463;28;20025;-66
2023/07/24 08:55:05;;;;;;;8.30;3.47;;;;;;;-144.48;100.00;62369.91;5014335;28;20029;-64
2023/07/24 08:57:30;;;;;;;8.00;4.10;;;;;;;-144.48;100.00;62369.91;5027848;28;20284;-65
2023/07/24 08:59:56;;;;;;;8.70;3.30;;;;;;;-144.48;100.00;62369.91;5027010;28;20021;-65
2023/07/24 09:02:21;;;;;;;7.70;3.55;;;;;;;-144.48;100.00;62369.91;5027880;28;20438;-65
2023/07/24 09:04:46;;;;;;;7.38;3.35;;;;;;;-144.48;100.00;62369.91;5026553;28;20029;-67
2023/07/24 09:07:13;;;;;;;6.22;3.25;;;;;;;-144.48;100.00;62369.91;5025954;28;20022;-66
2023/07/24 09:09:39;;;;;;;7.82;3.22;;;;;;;-144.48;100.00;62369.91;5017540;28;20518;-65
2023/07/24 09:12:05;;;;;;;7.72;3.28;;;;;;;-144.48;100.00;62369.91;5027475;28;20116;-65
2023/07/24 09:14:31;;;;;;;13.60;4.30;;;;;;;-144.48;100.00;62369.91;5026075;28;20033;-64
2023/07/24 09:17:04;;;;;;;6.50;3.22;;;;;;;-144.48;100.00;62369.91;5028485;28;20104;-65
2023/07/24 09:19:29;;;;;;;6.82;3.42;;;;;;;-144.48;100.00;62369.91;5000692;28;20032;-67
2023/07/24 09:22:20;;;;;;;8.18;3.92;;;;;;;-144.48;100.00;62369.91;5049908;22;20037;-89
2023/07/24 09:25:03;;;;;;;12.40;3.67;;;;;;;-144.48;100.00;62369.91;5038512;28;20025;-88
2023/07/24 09:27:32;;;;;;;7.32;3.60;;;;;;;-144.48;100.00;62369.91;5025295;28;20025;-90
2023/07/24 09:30:06;;;;;;;9.90;4.15;;;;;;;-144.48;100.00;62369.91;5011852;28;20033;-90
2023/07/24 09:32:44;;;;;;;7.07;3.42;;;;;;;-144.48;100.00;62369.91;5044359;28;20048;-89
2023/07/24 09:35:20;;;;;;;8.65;3.63;;;;;;;-144.48;100.00;62369.91;5029639;28;20025;-89
2023/07/24 09:37:55;;;;;;;10.30;3.58;;;;;;;-144.48;100.00;62369.91;5044752;28;20033;-89
2023/07/24 09:40:25;;;;;;;9.35;4.82;;;;;;;-144.48;100.00;62369.91;5049455;28;20095;-88
2023/07/24 09:43:03;;;;;;;10.80;4.53;;;;;;;-144.48;100.00;62369.91;5036375;28;20476;-89
2023/07/24 09:45:37;;;;;;;8.25;3.92;;;;;;;-144.48;100.00;62369.91;5037998;28;20033;-90
2023/07/24 09:48:03;;;;;;;9.27;4.10;;;;;;;-144.48;100.00;62369.91;5037652;28;20041;-87
2023/07/24 09:50:32;;;;;;;11.77;4.35;;;;;;;-144.48;100.00;62369.91;5020585;28;20458;-88
2023/07/24 09:53:10;;;;;;;;;;;;;;;;;;;;;
2023/07/24 09:56:08;;;;;;;11.30;4.28;;;;;;;-144.48;100.00;62369.91;5035419;28;20106;-90
2023/07/24 09:58:48;;;;;;;12.05;5.53;;;;;;;-144.48;100.00;62369.91;5026662;28;20045;-89
2023/07/24 10:01:20;;;;;;;11.18;4.55;;;;;;;-144.48;100.00;62369.91;5030863;28;20031;-88
2023/07/24 10:03:50;;;;;;;10.63;4.05;;;;;;;-144.48;100.00;62369.91;5036547;28;20032;-89
2023/07/24 10:06:20;;;;;;;11.75;4.78;;;;;;;-144.48;100.00;62369.91;5036367;28;20064;-89
2023/07/24 10:08:54;;;;;;;10.32;4.60;;;;;;;-144.48;100.00;62369.91;5035127;28;20068;-88
2023/07/24 10:11:23;;;;;;;10.10;4.53;;;;;;;-144.48;100.00;62369.91;5018245;28;20425;-89
2023/07/24 10:13:54;;;;;;;10.85;5.07;;;;;;;-144.48;100.00;62369.91;5019350;28;20206;-88
2023/07/24 10:16:20;;;;;;;9.57;4.75;;;;;;;-144.48;100.00;62369.91;5033319;28;20037;-89
2023/07/24 10:18:46;;;;;;;7.90;4.57;;;;;;;-144.48;100.00;62369.91;5019391;28;20378;-90
2023/07/24 10:21:15;;;;;;;10.43;5.32;;;;;;;-144.48;100.00;62369.91;5022265;28;20021;-90
2023/07/24 10:24:08;;;;;;;9.52;4.38;;;;;;;-144.48;100.00;62369.91;5035504;28;20098;-90
2023/07/24 10:26:37;;;;;;;9.85;4.78;;;;;;;-144.48;100.00;62369.91;5036423;28;20049;-89
2023/07/24 10:29:10;;;;;;;10.13;4.97;;;;;;;-144.48;100.00;62369.91;5039888;28;20017;-90
2023/07/24 10:31:35;;;;;;;9.48;5.00;;;;;;;-144.48;100.00;62369.91;5021877;28;20048;-89
2023/07/24 10:34:10;;;;;;;14.93;5.57;;;;;;;-144.48;100.00;62369.91;5024379;28;20036;-88
2023/07/24 10:36:38;;;;;;;10.60;4.90;;;;;;;-144.48;100.00;62369.91;5044272;28;20029;-89
2023/07/24 10:39:19;;;;;;;9.30;4.80;;;;;;;-144.48;100.00;62369.91;5039284;28;20044;-88
2023/07/24 10:41:46;;;;;;;11.90;5.43;;;;;;;-144.48;100.00;62369.91;5015765;28;20097;-87
2023/07/24 10:44:11;;;;;;;8.60;4.63;;;;;;;-144.48;100.00;62369.91;5033464;28;20097;-89
2023/07/24 10:46:44;;;;;;;9.10;5.15;;;;;;;-144.48;100.00;62369.91;5049025;28;20041;-89
2023/07/24 10:49:21;;;;;;;9.73;5.00;;;;;;;-144.48;100.00;62369.91;5029994;28;20120;-88
2023/07/24 10:51:47;;;;;;;11.55;5.60;;;;;;;-144.48;100.00;62369.91;5029023;28;20105;-87
2023/07/24 10:54:21;;;;;;;10.07;5.25;;;;;;;-144.48;100.00;62369.91;5039155;28;20034;-88
2023/07/24 10:56:47;;;;;;;13.32;5.63;;;;;;;-144.48;100.00;62369.91;5019331;28;20033;-90
2023/07/24 10:59:36;;;;;;;10.43;4.90;;;;;;;-144.48;100.00;62369.91;5037343;28;20113;-90
2023/07/24 11:02:04;;;;;;;15.18;5.47;;;;;;;-144.48;100.00;62369.91;4972675;28;20646;-90
2023/07/24 11:04:41;;;;;;;10.60;5.43;;;;;;;-144.48;100.00;62369.91;4967153;28;20538;-89
2023/07/24 11:07:07;;;;;;;9.10;4.82;;;;;;;-144.48;100.00;62369.91;4965826;28;20108;-89
2023/07/24 11:09:43;;;;;;;11.73;5.70;;;;;;;-144.48;100.00;62369.91;4974439;28;20097;-89
2023/07/24 11:12:16;;;;;;;11.85;5.60;;;;;;;-144.48;100.00;62369.91;4964854;28;20057;-91